Time;durP1;ratioP1;P1;durP2;ratioP2;P2;SDS_P1;SDS_P2;PMS_P1;PMS_P2;Temp;Humidity;BMP_temperature;BMP_pressure;BME280_temperature;BME280_humidity;BME280_pressure;Samples;Min_cycle;Max_cycle;Signal;HPM_P1;HPM_P2
2022/08/08 00:02:13;;;;;;;10.63;4.78;;;;;;;;;;5081277;28;20021;-75
2022/08/08 00:04:46;;;;;;;7.75;4.60;;;;;;;;;;5102734;28;20024;-75
2022/08/08 00:07:16;;;;;;;7.18;4.38;;;;;;;;;;5100332;28;20021;-74
2022/08/08 00:09:45;;;;;;;9.75;5.05;;;;;;;;;;5099890;28;20024;-75
2022/08/08 00:12:14;;;;;;;8.43;4.82;;;;;;;;;;5098121;28;20054;-74
2022/08/08 00:14:47;;;;;;;10.60;4.13;;;;;;;;;;5098522;28;20031;-75
2022/08/08 00:17:32;;;;;;;7.88;5.35;;;;;;;;;;5098915;28;20031;-74
2022/08/08 00:20:00;;;;;;;9.38;4.78;;;;;;;;;;5099468;28;20108;-75
2022/08/08 00:22:55;;;;;;;6.95;4.07;;;;;;;;;;5094706;28;20029;-76
2022/08/08 00:25:23;;;;;;;7.35;4.00;;;;;;;;;;5051955;28;20522;-75
2022/08/08 00:27:50;;;;;;;9.05;5.78;;;;;;;;;;5079857;28;20024;-75
2022/08/08 00:30:16;;;;;;;10.30;4.93;;;;;;;;;;5091671;28;20035;-74
2022/08/08 00:32:45;;;;;;;9.45;5.35;;;;;;;;;;5090885;28;20482;-75
2022/08/08 00:35:25;;;;;;;7.72;5.30;;;;;;;;;;5073807;28;20036;-75
2022/08/08 00:38:02;;;;;;;8.43;4.80;;;;;;;;;;5072420;28;20078;-75
2022/08/08 00:40:28;;;;;;;10.50;5.60;;;;;;;;;;5053373;28;20089;-75
2022/08/08 00:42:54;;;;;;;8.00;4.50;;;;;;;;;;5077739;28;20374;-74
2022/08/08 00:45:39;;;;;;;8.35;5.30;;;;;;;;;;5091838;28;20036;-74
2022/08/08 00:48:05;;;;;;;8.25;5.38;;;;;;;;;;5092384;28;20024;-75
2022/08/08 00:50:50;;;;;;;11.38;4.95;;;;;;;;;;5091127;28;20063;-75
2022/08/08 00:53:22;;;;;;;10.23;5.40;;;;;;;;;;5077150;28;20028;-75
2022/08/08 00:56:08;;;;;;;9.02;5.68;;;;;;;;;;5071302;28;20052;-75
2022/08/08 00:59:07;;;;;;;7.97;4.57;;;;;;;;;;5070906;28;20036;-75
2022/08/08 01:02:02;;;;;;;9.68;5.50;;;;;;;;;;5015599;28;20442;-75
2022/08/08 01:04:43;;;;;;;9.18;4.88;;;;;;;;;;4962657;28;20486;-75
2022/08/08 01:07:31;;;;;;;7.45;5.15;;;;;;;;;;5032409;28;20029;-75
2022/08/08 01:10:16;;;;;;;8.60;5.53;;;;;;;;;;5051627;28;20077;-75
2022/08/08 01:13:07;;;;;;;9.50;5.45;;;;;;;;;;5064397;28;20111;-74
2022/08/08 01:15:39;;;;;;;7.22;5.07;;;;;;;;;;5092310;28;20062;-76
2022/08/08 01:18:09;;;;;;;8.57;5.78;;;;;;;;;;5093150;28;20062;-75
2022/08/08 01:20:35;;;;;;;8.75;5.50;;;;;;;;;;5093441;28;20075;-75
2022/08/08 01:23:20;;;;;;;7.75;5.07;;;;;;;;;;5066924;28;20035;-75
2022/08/08 01:26:06;;;;;;;10.60;5.75;;;;;;;;;;5074591;28;20074;-75
2022/08/08 01:28:35;;;;;;;9.25;5.47;;;;;;;;;;5056188;28;20035;-76
2022/08/08 01:31:25;;;;;;;8.52;5.45;;;;;;;;;;5073659;28;20026;-75
2022/08/08 01:34:11;;;;;;;8.52;5.40;;;;;;;;;;5087789;28;20035;-75
2022/08/08 01:36:55;;;;;;;8.35;5.43;;;;;;;;;;5082318;28;20029;-75
2022/08/08 01:39:26;;;;;;;9.73;5.35;;;;;;;;;;5071987;28;20033;-75
2022/08/08 01:41:53;;;;;;;9.15;5.43;;;;;;;;;;5087335;28;20095;-75
2022/08/08 01:44:34;;;;;;;8.73;5.65;;;;;;;;;;5073033;28;20115;-75
2022/08/08 01:47:18;;;;;;;8.23;5.45;;;;;;;;;;5074999;28;20024;-75
2022/08/08 01:50:04;;;;;;;12.77;6.47;;;;;;;;;;5070778;28;20111;-74
2022/08/08 01:52:52;;;;;;;8.70;5.38;;;;;;;;;;5073901;28;20021;-75
2022/08/08 01:55:27;;;;;;;11.15;6.22;;;;;;;;;;5072128;28;20032;-75
2022/08/08 01:58:02;;;;;;;9.20;5.57;;;;;;;;;;5071037;28;20017;-75
2022/08/08 02:00:31;;;;;;;6.60;3.78;;;;;;;;;;5071110;28;20032;-74
2022/08/08 02:03:06;;;;;;;8.52;5.00;;;;;;;;;;5063407;28;20501;-75
2022/08/08 02:05:51;;;;;;;11.93;6.35;;;;;;;;;;5095898;28;20371;-75
2022/08/08 02:08:19;;;;;;;7.75;4.38;;;;;;;;;;5095401;28;20127;-75
2022/08/08 02:10:45;;;;;;;9.05;5.50;;;;;;;;;;5076890;28;20055;-75
2022/08/08 02:13:23;;;;;;;7.75;5.07;;;;;;;;;;5081477;28;20032;-75
2022/08/08 02:16:07;;;;;;;7.72;4.75;;;;;;;;;;5073553;28;20052;-75
2022/08/08 02:18:39;;;;;;;11.55;5.22;;;;;;;;;;5072898;28;20106;-75
2022/08/08 02:24:05;;;;;;;6.70;4.28;;;;;;;;;;5072431;28;20063;-75
2022/08/08 02:26:52;;;;;;;10.45;4.90;;;;;;;;;;5071130;28;20059;-75
2022/08/08 02:29:27;;;;;;;12.02;5.40;;;;;;;;;;5072044;28;20020;-75
2022/08/08 02:31:53;;;;;;;9.85;4.88;;;;;;;;;;5073493;28;20024;-75
2022/08/08 02:34:30;;;;;;;10.07;4.85;;;;;;;;;;5077952;28;20024;-76
2022/08/08 02:37:13;;;;;;;9.75;5.43;;;;;;;;;;5074148;28;20024;-76
2022/08/08 02:39:46;;;;;;;6.97;4.80;;;;;;;;;;5072513;28;20078;-76
2022/08/08 02:42:31;;;;;;;8.63;5.13;;;;;;;;;;5058404;28;20063;-75
2022/08/08 02:45:03;;;;;;;9.93;5.63;;;;;;;;;;5072724;28;20031;-75
2022/08/08 02:47:48;;;;;;;7.85;4.70;;;;;;;;;;5073583;28;20025;-75
2022/08/08 02:50:20;;;;;;;9.82;5.00;;;;;;;;;;5070562;28;20067;-75
2022/08/08 02:52:54;;;;;;;8.52;5.28;;;;;;;;;;5070313;28;20052;-76
2022/08/08 02:55:26;;;;;;;10.45;5.45;;;;;;;;;;5071854;28;20021;-74
2022/08/08 02:58:10;;;;;;;9.50;5.20;;;;;;;;;;5071416;28;20081;-76
2022/08/08 03:00:39;;;;;;;9.60;4.90;;;;;;;;;;5070938;28;20049;-76
2022/08/08 03:03:24;;;;;;;8.43;5.97;;;;;;;;;;5072060;28;20399;-75
2022/08/08 03:06:09;;;;;;;8.85;5.05;;;;;;;;;;5052728;28;20517;-75
2022/08/08 03:08:54;;;;;;;7.47;5.25;;;;;;;;;;5070332;28;20020;-75
2022/08/08 03:11:36;;;;;;;9.63;5.60;;;;;;;;;;5072202;28;20031;-76
2022/08/08 03:14:21;;;;;;;9.23;5.13;;;;;;;;;;5072466;28;20024;-75
2022/08/08 03:16:47;;;;;;;8.27;4.20;;;;;;;;;;5069289;28;20021;-75
2022/08/08 03:19:22;;;;;;;8.43;4.85;;;;;;;;;;5070810;28;20028;-76
2022/08/08 03:21:47;;;;;;;7.47;4.90;;;;;;;;;;5047186;28;20516;-76
2022/08/08 03:24:18;;;;;;;8.75;4.65;;;;;;;;;;5050027;28;20027;-76
2022/08/08 03:26:44;;;;;;;;;;;;;;;;;;5050184;28;20075;-76
2022/08/08 03:29:12;;;;;;;12.70;6.22;;;;;;;;;;5050733;28;19967;-76
2022/08/08 03:34:23;;;;;;;8.15;4.53;;;;;;;;;;5072198;28;20723;-76
2022/08/08 03:36:49;;;;;;;7.18;4.15;;;;;;;;;;5059818;28;20028;-75
2022/08/08 03:39:15;;;;;;;7.22;4.25;;;;;;;;;;5051300;28;20074;-75
2022/08/08 03:41:41;;;;;;;8.18;4.63;;;;;;;;;;5053175;28;20025;-75
2022/08/08 03:44:07;;;;;;;10.45;5.07;;;;;;;;;;5071131;28;20043;-75
2022/08/08 03:46:46;;;;;;;8.30;4.10;;;;;;;;;;5070963;28;20028;-75
2022/08/08 03:49:19;;;;;;;6.32;3.88;;;;;;;;;;5071253;28;20043;-75
2022/08/08 03:51:46;;;;;;;6.80;3.83;;;;;;;;;;5070266;28;20387;-75
2022/08/08 03:54:12;;;;;;;7.43;4.28;;;;;;;;;;5050622;28;20032;-75
2022/08/08 03:56:38;;;;;;;9.60;5.28;;;;;;;;;;5050766;28;20065;-76
2022/08/08 03:59:04;;;;;;;9.43;4.97;;;;;;;;;;5050614;28;20040;-75
2022/08/08 04:01:34;;;;;;;9.23;5.38;;;;;;;;;;5050593;28;20036;-75
2022/08/08 04:04:00;;;;;;;8.63;4.45;;;;;;;;;;5068501;28;20028;-75
2022/08/08 04:06:28;;;;;;;11.50;6.20;;;;;;;;;;5070163;28;20039;-75
2022/08/08 04:08:54;;;;;;;7.65;4.70;;;;;;;;;;5049394;28;20017;-75
2022/08/08 04:11:20;;;;;;;10.10;5.53;;;;;;;;;;5038947;28;20036;-74
2022/08/08 04:13:47;;;;;;;7.35;4.63;;;;;;;;;;5055147;28;20029;-74
2022/08/08 04:16:13;;;;;;;7.32;5.25;;;;;;;;;;5039665;28;20033;-73
2022/08/08 04:18:39;;;;;;;8.10;4.22;;;;;;;;;;5039081;28;20032;-74
2022/08/08 04:21:05;;;;;;;7.88;4.95;;;;;;;;;;5036144;28;20045;-75
2022/08/08 04:23:31;;;;;;;11.65;5.85;;;;;;;;;;5041836;28;20064;-74
2022/08/08 04:25:57;;;;;;;11.63;6.10;;;;;;;;;;5049981;28;20028;-75
2022/08/08 04:28:23;;;;;;;9.00;5.20;;;;;;;;;;5049308;28;20048;-75
2022/08/08 04:30:50;;;;;;;6.95;4.55;;;;;;;;;;5049660;28;20464;-75
2022/08/08 04:33:16;;;;;;;8.70;5.57;;;;;;;;;;5050112;28;20399;-75
2022/08/08 04:35:42;;;;;;;11.40;4.40;;;;;;;;;;5051428;28;20064;-75
2022/08/08 04:38:08;;;;;;;11.00;5.97;;;;;;;;;;5050690;28;20037;-75
2022/08/08 04:40:34;;;;;;;8.65;5.55;;;;;;;;;;5050103;28;20091;-75
2022/08/08 04:43:00;;;;;;;13.13;6.18;;;;;;;;;;5058444;28;20025;-75
2022/08/08 04:45:27;;;;;;;9.93;5.47;;;;;;;;;;5069472;28;20029;-74
2022/08/08 04:47:53;;;;;;;9.75;5.15;;;;;;;;;;5068845;28;20055;-75
2022/08/08 04:50:20;;;;;;;10.10;5.65;;;;;;;;;;5069652;28;20013;-74
2022/08/08 04:52:46;;;;;;;12.57;5.72;;;;;;;;;;5057626;28;20025;-75
2022/08/08 04:55:12;;;;;;;7.32;3.90;;;;;;;;;;5049240;28;20060;-74
2022/08/08 04:57:38;;;;;;;8.43;5.00;;;;;;;;;;5049648;28;20080;-74
2022/08/08 05:00:06;;;;;;;7.05;4.50;;;;;;;;;;5048403;28;20089;-75
2022/08/08 05:02:32;;;;;;;6.47;4.35;;;;;;;;;;5057782;28;20064;-75
2022/08/08 05:04:58;;;;;;;7.05;4.35;;;;;;;;;;5069315;28;20111;-75
2022/08/08 05:07:25;;;;;;;9.95;4.72;;;;;;;;;;5068930;28;20021;-75
2022/08/08 05:09:51;;;;;;;10.70;5.00;;;;;;;;;;5069239;28;20151;-75
2022/08/08 05:12:17;;;;;;;7.40;4.07;;;;;;;;;;5054400;28;20439;-75
2022/08/08 05:14:43;;;;;;;8.50;4.00;;;;;;;;;;5048302;28;20056;-75
2022/08/08 05:17:09;;;;;;;5.53;3.28;;;;;;;;;;5048698;28;20048;-75
2022/08/08 05:19:36;;;;;;;6.68;3.55;;;;;;;;;;5048791;28;20052;-75
2022/08/08 05:22:03;;;;;;;6.72;3.70;;;;;;;;;;5066097;28;20044;-75
2022/08/08 05:24:29;;;;;;;8.63;5.22;;;;;;;;;;5069500;28;20032;-75
2022/08/08 05:26:55;;;;;;;7.65;3.75;;;;;;;;;;5069748;28;20025;-75
2022/08/08 05:29:21;;;;;;;9.68;3.75;;;;;;;;;;5069032;28;20497;-75
2022/08/08 05:31:47;;;;;;;6.18;3.63;;;;;;;;;;5069389;28;20035;-75
2022/08/08 05:34:18;;;;;;;5.80;3.08;;;;;;;;;;5069083;28;20024;-75
2022/08/08 05:36:47;;;;;;;6.95;2.90;;;;;;;;;;5071141;28;20395;-76
2022/08/08 05:39:13;;;;;;;6.55;2.60;;;;;;;;;;5081617;28;20068;-74
2022/08/08 05:41:40;;;;;;;7.10;2.78;;;;;;;;;;5055132;28;20060;-75
2022/08/08 05:44:12;;;;;;;5.70;2.17;;;;;;;;;;5072406;28;20028;-75
2022/08/08 05:46:39;;;;;;;6.13;2.42;;;;;;;;;;5073790;28;20390;-75
2022/08/08 05:49:06;;;;;;;6.43;3.10;;;;;;;;;;5070610;28;20432;-75
2022/08/08 05:51:36;;;;;;;4.32;2.40;;;;;;;;;;5073043;28;20020;-75
2022/08/08 05:54:02;;;;;;;3.92;1.90;;;;;;;;;;5071611;28;20120;-74
2022/08/08 05:56:29;;;;;;;4.63;2.50;;;;;;;;;;5073021;28;20032;-74
2022/08/08 05:59:03;;;;;;;6.47;2.95;;;;;;;;;;5072156;28;20431;-73
2022/08/08 06:01:29;;;;;;;7.15;2.50;;;;;;;;;;5070363;28;20017;-75
2022/08/08 06:04:01;;;;;;;6.85;2.35;;;;;;;;;;5071491;28;20020;-74
2022/08/08 06:06:30;;;;;;;5.90;2.60;;;;;;;;;;5069417;28;20031;-75
2022/08/08 06:08:58;;;;;;;7.65;2.80;;;;;;;;;;5071298;28;20017;-74
2022/08/08 06:11:26;;;;;;;4.05;2.13;;;;;;;;;;5055174;28;20020;-73
2022/08/08 06:13:52;;;;;;;4.85;2.15;;;;;;;;;;5064151;28;20533;-73
2022/08/08 06:16:19;;;;;;;4.13;1.75;;;;;;;;;;5069697;28;20029;-73
2022/08/08 06:18:47;;;;;;;5.10;1.70;;;;;;;;;;5072677;28;20056;-73
2022/08/08 06:21:14;;;;;;;7.97;1.80;;;;;;;;;;5070159;28;20483;-74
2022/08/08 06:23:40;;;;;;;5.53;1.58;;;;;;;;;;5067103;28;20024;-74
2022/08/08 06:26:07;;;;;;;5.72;1.77;;;;;;;;;;5068702;28;20028;-74
2022/08/08 06:28:34;;;;;;;6.05;1.90;;;;;;;;;;5068904;28;20177;-74
2022/08/08 06:31:03;;;;;;;3.53;1.27;;;;;;;;;;5069792;28;20060;-74
2022/08/08 06:33:49;;;;;;;5.85;2.28;;;;;;;;;;5067232;28;20017;-75
2022/08/08 06:36:19;;;;;;;4.30;1.30;;;;;;;;;;5067612;28;20749;-72
2022/08/08 06:38:45;;;;;;;;;;;;;;;;;;5070904;28;20037;-72
2022/08/08 06:41:13;;;;;;;5.50;1.55;;;;;;;;;;5070480;28;19913;-72
2022/08/08 06:43:40;;;;;;;5.20;1.27;;;;;;;;;;5070455;28;20040;-73
2022/08/08 06:46:08;;;;;;;6.82;1.67;;;;;;;;;;5070864;28;20749;-73
2022/08/08 06:48:34;;;;;;;4.72;1.50;;;;;;;;;;5070265;28;20024;-73
2022/08/08 06:51:02;;;;;;;3.55;1.35;;;;;;;;;;5070902;28;20027;-73
2022/08/08 06:53:29;;;;;;;5.75;1.52;;;;;;;;;;5045358;28;20419;-73
2022/08/08 06:55:55;;;;;;;4.43;1.40;;;;;;;;;;5070476;28;20135;-72
2022/08/08 06:58:21;;;;;;;3.10;1.08;;;;;;;;;;5070930;28;20188;-72
2022/08/08 07:00:50;;;;;;;3.72;1.50;;;;;;;;;;5070766;28;20033;-72
2022/08/08 07:03:26;;;;;;;6.75;1.70;;;;;;;;;;5052213;28;20568;-72
2022/08/08 07:05:54;;;;;;;6.13;1.45;;;;;;;;;;5068123;28;20451;-71
2022/08/08 07:08:23;;;;;;;3.42;1.05;;;;;;;;;;5068848;28;20029;-73
2022/08/08 07:10:50;;;;;;;3.67;1.20;;;;;;;;;;5068133;28;20021;-73
2022/08/08 07:13:17;;;;;;;4.53;1.33;;;;;;;;;;5069654;28;20038;-73
2022/08/08 07:15:42;;;;;;;6.03;1.60;;;;;;;;;;5070484;28;20035;-73
2022/08/08 07:18:09;;;;;;;5.50;1.40;;;;;;;;;;5070783;28;20986;-72
2022/08/08 07:20:38;;;;;;;4.32;1.40;;;;;;;;;;5070701;28;20121;-72
2022/08/08 07:23:15;;;;;;;6.78;1.50;;;;;;;;;;5068195;28;20033;-72
2022/08/08 07:25:44;;;;;;;5.25;1.55;;;;;;;;;;5071185;28;20074;-73
2022/08/08 07:28:11;;;;;;;4.25;1.42;;;;;;;;;;5067820;28;20055;-76
2022/08/08 07:30:38;;;;;;;5.32;2.15;;;;;;;;;;5051536;28;20029;-73
2022/08/08 07:33:04;;;;;;;3.83;1.42;;;;;;;;;;5070905;28;20028;-73
2022/08/08 07:35:31;;;;;;;4.80;1.60;;;;;;;;;;5070118;28;20078;-72
2022/08/08 07:37:57;;;;;;;4.50;1.50;;;;;;;;;;5069983;28;20023;-72
2022/08/08 07:40:27;;;;;;;3.15;1.15;;;;;;;;;;5069187;28;20417;-73
2022/08/08 07:42:53;;;;;;;;;;;;;;;;;;5070001;28;20059;-73
2022/08/08 07:45:21;;;;;;;7.15;1.70;;;;;;;;;;5069691;28;19905;-71
2022/08/08 07:47:47;;;;;;;3.28;1.20;;;;;;;;;;5069864;28;20052;-71
2022/08/08 07:50:14;;;;;;;5.10;1.35;;;;;;;;;;5068792;28;20040;-70
2022/08/08 07:52:42;;;;;;;3.88;1.25;;;;;;;;;;5069821;28;20016;-70
2022/08/08 07:55:35;;;;;;;3.47;1.20;;;;;;;;;;5069104;28;20067;-73
2022/08/08 07:58:01;;;;;;;4.70;1.58;;;;;;;;;;5063291;28;20450;-71
2022/08/08 08:00:47;;;;;;;2.90;1.10;;;;;;;;;;5069148;28;20091;-72
2022/08/08 08:03:18;;;;;;;3.83;1.20;;;;;;;;;;5069016;28;20435;-72
2022/08/08 08:05:45;;;;;;;3.53;1.30;;;;;;;;;;5071002;28;20020;-72
2022/08/08 08:08:18;;;;;;;5.75;1.33;;;;;;;;;;5070704;28;20030;-72
2022/08/08 08:10:44;;;;;;;7.35;1.23;;;;;;;;;;5070516;28;20360;-73
2022/08/08 08:13:20;;;;;;;4.68;1.50;;;;;;;;;;5071282;28;20024;-73
2022/08/08 08:16:06;;;;;;;5.25;1.35;;;;;;;;;;5067305;28;20043;-74
2022/08/08 08:18:37;;;;;;;8.60;1.90;;;;;;;;;;5069132;28;20044;-73
2022/08/08 08:21:03;;;;;;;13.73;2.17;;;;;;;;;;5069163;28;20048;-73
2022/08/08 08:23:29;;;;;;;4.18;1.33;;;;;;;;;;5070249;28;20446;-73
2022/08/08 08:25:56;;;;;;;7.07;1.52;;;;;;;;;;5069746;28;20081;-73
2022/08/08 08:28:23;;;;;;;5.60;1.20;;;;;;;;;;5064184;28;20076;-73
2022/08/08 08:30:49;;;;;;;4.55;1.50;;;;;;;;;;5068853;28;20025;-72
2022/08/08 08:33:15;;;;;;;4.97;1.40;;;;;;;;;;5070134;28;20036;-72
2022/08/08 08:35:41;;;;;;;7.50;1.13;;;;;;;;;;5069873;28;20017;-72
2022/08/08 08:38:07;;;;;;;4.20;1.55;;;;;;;;;;5070394;28;20024;-73
2022/08/08 08:40:33;;;;;;;2.47;1.08;;;;;;;;;;5069354;28;20040;-74
2022/08/08 08:43:02;;;;;;;3.80;1.08;;;;;;;;;;5057800;28;20029;-78
2022/08/08 08:45:28;;;;;;;2.22;0.93;;;;;;;;;;5037918;28;20025;-76
2022/08/08 08:47:55;;;;;;;3.08;1.27;;;;;;;;;;5041481;28;20036;-76
2022/08/08 08:50:22;;;;;;;11.40;2.05;;;;;;;;;;5070990;28;20028;-80
2022/08/08 08:52:48;;;;;;;3.40;1.08;;;;;;;;;;5071870;28;20082;-78
2022/08/08 08:55:15;;;;;;;5.25;1.23;;;;;;;;;;5069758;28;20033;-78
2022/08/08 08:57:44;;;;;;;14.55;1.98;;;;;;;;;;5069190;28;20021;-77
2022/08/08 09:00:11;;;;;;;4.50;1.05;;;;;;;;;;5068870;28;20032;-74
2022/08/08 09:02:38;;;;;;;3.13;0.88;;;;;;;;;;5068648;28;20456;-75
2022/08/08 09:05:08;;;;;;;6.55;1.50;;;;;;;;;;5069462;28;20036;-77
2022/08/08 09:07:35;;;;;;;1.67;0.52;;;;;;;;;;5066448;28;20131;-72
2022/08/08 09:10:02;;;;;;;4.00;1.02;;;;;;;;;;5068642;28;20697;-74
2022/08/08 09:12:28;;;;;;;3.60;0.75;;;;;;;;;;5066924;28;20105;-77
2022/08/08 09:14:59;;;;;;;4.88;1.00;;;;;;;;;;5068902;28;20024;-74
2022/08/08 09:17:25;;;;;;;2.63;0.82;;;;;;;;;;5069428;28;20089;-76
2022/08/08 09:19:52;;;;;;;2.15;0.77;;;;;;;;;;5050767;28;20403;-76
2022/08/08 09:22:21;;;;;;;5.20;1.15;;;;;;;;;;5066198;28;20048;-75
2022/08/08 09:24:48;;;;;;;1.42;0.77;;;;;;;;;;5069276;28;20111;-77
2022/08/08 09:27:16;;;;;;;4.72;0.93;;;;;;;;;;5072641;28;20039;-72
2022/08/08 09:29:58;;;;;;;2.30;0.70;;;;;;;;;;5069882;28;20032;-77
2022/08/08 09:32:30;;;;;;;3.45;0.80;;;;;;;;;;5067534;28;20115;-76
2022/08/08 09:35:00;;;;;;;1.67;0.75;;;;;;;;;;5050072;28;20489;-79
2022/08/08 09:37:28;;;;;;;1.80;0.80;;;;;;;;;;5069264;28;20032;-77
2022/08/08 09:40:03;;;;;;;4.80;0.88;;;;;;;;;;5068900;28;20063;-75
2022/08/08 09:42:34;;;;;;;3.22;0.80;;;;;;;;;;5069741;28;20029;-75
2022/08/08 09:45:06;;;;;;;1.58;0.63;;;;;;;;;;5070030;28;20082;-75
2022/08/08 09:47:34;;;;;;;4.00;0.77;;;;;;;;;;5069061;28;20078;-77
2022/08/08 09:50:02;;;;;;;2.05;0.70;;;;;;;;;;5068906;28;20025;-76
2022/08/08 09:52:30;;;;;;;2.97;0.80;;;;;;;;;;5068346;28;20024;-76
2022/08/08 09:54:56;;;;;;;2.65;0.70;;;;;;;;;;5068258;28;20016;-77
2022/08/08 09:57:30;;;;;;;2.78;0.98;;;;;;;;;;5067716;28;20089;-77
2022/08/08 09:59:59;;;;;;;3.30;1.10;;;;;;;;;;5066418;28;20119;-77
2022/08/08 10:02:32;;;;;;;1.95;0.80;;;;;;;;;;5065329;28;20108;-77
2022/08/08 10:05:06;;;;;;;1.90;0.85;;;;;;;;;;5069157;28;20086;-75
2022/08/08 10:07:33;;;;;;;3.33;0.88;;;;;;;;;;5068369;28;20013;-77
2022/08/08 10:09:59;;;;;;;2.17;0.95;;;;;;;;;;5068094;28;20031;-75
2022/08/08 10:12:32;;;;;;;3.95;1.05;;;;;;;;;;5068506;28;20028;-75
2022/08/08 10:15:03;;;;;;;4.35;1.15;;;;;;;;;;5068202;28;20025;-74
2022/08/08 10:17:32;;;;;;;3.08;0.80;;;;;;;;;;5069436;28;20056;-76
2022/08/08 10:19:59;;;;;;;4.07;1.25;;;;;;;;;;5052415;28;20698;-74
2022/08/08 10:22:26;;;;;;;4.90;0.77;;;;;;;;;;5070592;28;20048;-73
2022/08/08 10:24:54;;;;;;;2.67;0.80;;;;;;;;;;5073401;28;20755;-75
2022/08/08 10:27:25;;;;;;;2.15;1.00;;;;;;;;;;5074394;28;20047;-72
2022/08/08 10:29:54;;;;;;;3.17;0.88;;;;;;;;;;5071167;28;20075;-75
2022/08/08 10:32:35;;;;;;;2.42;0.93;;;;;;;;;;5072468;28;20029;-72
2022/08/08 10:35:12;;;;;;;1.80;0.88;;;;;;;;;;5073992;28;20039;-72
2022/08/08 10:37:41;;;;;;;2.03;0.77;;;;;;;;;;5069817;28;20024;-72
2022/08/08 10:40:14;;;;;;;2.88;0.80;;;;;;;;;;5066286;28;20104;-72
2022/08/08 10:42:40;;;;;;;3.40;1.00;;;;;;;;;;5071861;28;20013;-71
2022/08/08 10:45:07;;;;;;;2.28;0.90;;;;;;;;;;5072095;28;20039;-71
2022/08/08 10:47:34;;;;;;;3.47;0.70;;;;;;;;;;5073673;28;20074;-72
2022/08/08 10:50:01;;;;;;;3.10;0.80;;;;;;;;;;5068332;28;20021;-72
2022/08/08 10:52:28;;;;;;;2.00;0.65;;;;;;;;;;5073081;28;20391;-73
2022/08/08 10:54:56;;;;;;;1.00;0.60;;;;;;;;;;5073257;28;20103;-71
2022/08/08 10:57:22;;;;;;;2.95;0.90;;;;;;;;;;5070670;28;20021;-72
2022/08/08 10:59:55;;;;;;;2.08;0.70;;;;;;;;;;5054877;28;20063;-73
2022/08/08 11:02:29;;;;;;;4.78;0.90;;;;;;;;;;5071552;28;20055;-70
2022/08/08 11:05:00;;;;;;;3.50;0.98;;;;;;;;;;5071449;28;20055;-70
2022/08/08 11:07:27;;;;;;;4.85;1.48;;;;;;;;;;5071269;28;20028;-69
2022/08/08 11:09:53;;;;;;;2.13;1.13;;;;;;;;;;5053260;28;20032;-71
2022/08/08 11:12:19;;;;;;;3.53;0.85;;;;;;;;;;5073663;28;20017;-72
2022/08/08 11:14:50;;;;;;;2.10;0.60;;;;;;;;;;5072302;28;20025;-72
2022/08/08 11:17:22;;;;;;;2.30;0.73;;;;;;;;;;5074362;28;20116;-72
2022/08/08 11:19:48;;;;;;;3.88;1.02;;;;;;;;;;5061033;28;20048;-71
2022/08/08 11:22:16;;;;;;;4.88;0.90;;;;;;;;;;5053904;28;20139;-71
2022/08/08 11:24:45;;;;;;;5.82;1.00;;;;;;;;;;5051438;28;20068;-71
2022/08/08 11:27:11;;;;;;;5.05;1.25;;;;;;;;;;5052279;28;20028;-70
2022/08/08 11:29:38;;;;;;;6.55;0.80;;;;;;;;;;5052033;28;20060;-70
2022/08/08 11:32:04;;;;;;;3.55;1.05;;;;;;;;;;5052431;28;20029;-69
2022/08/08 11:34:32;;;;;;;2.58;0.70;;;;;;;;;;5067805;28;20029;-72
2022/08/08 11:37:00;;;;;;;2.75;0.90;;;;;;;;;;5073749;28;20024;-71
2022/08/08 11:39:26;;;;;;;3.42;0.90;;;;;;;;;;5074243;28;20035;-71
2022/08/08 11:41:52;;;;;;;2.70;0.70;;;;;;;;;;5055106;28;20024;-73
2022/08/08 11:44:19;;;;;;;2.33;0.70;;;;;;;;;;5076953;28;20025;-75
2022/08/08 11:46:45;;;;;;;3.10;0.90;;;;;;;;;;5074909;28;20024;-74
2022/08/08 11:49:12;;;;;;;1.73;0.70;;;;;;;;;;5056218;28;20036;-73
2022/08/08 11:51:44;;;;;;;3.10;0.77;;;;;;;;;;5070159;28;20031;-73
2022/08/08 11:54:10;;;;;;;2.15;0.70;;;;;;;;;;5073880;28;20398;-74
2022/08/08 11:56:42;;;;;;;5.13;0.93;;;;;;;;;;5072867;28;20028;-72
2022/08/08 11:59:10;;;;;;;3.55;0.70;;;;;;;;;;5071711;28;20033;-73
2022/08/08 12:01:36;;;;;;;1.70;0.68;;;;;;;;;;5074565;28;20360;-74
2022/08/08 12:04:03;;;;;;;3.78;0.98;;;;;;;;;;5074726;28;20060;-72
2022/08/08 12:06:31;;;;;;;2.03;0.90;;;;;;;;;;5054652;28;20025;-74
2022/08/08 12:09:10;;;;;;;2.47;0.65;;;;;;;;;;5070755;28;20024;-74
2022/08/08 12:11:41;;;;;;;2.17;0.73;;;;;;;;;;5074134;28;20033;-74
2022/08/08 12:14:07;;;;;;;3.25;0.75;;;;;;;;;;5074845;28;20036;-74
2022/08/08 12:16:33;;;;;;;2.35;0.60;;;;;;;;;;5084321;28;20024;-74
2022/08/08 12:19:01;;;;;;;2.92;0.80;;;;;;;;;;5086092;28;20082;-74
2022/08/08 12:21:31;;;;;;;2.40;0.55;;;;;;;;;;5054673;28;20057;-74
2022/08/08 12:24:05;;;;;;;2.78;0.60;;;;;;;;;;5074110;28;20056;-72
2022/08/08 12:26:36;;;;;;;3.25;0.70;;;;;;;;;;5087854;28;20031;-72
2022/08/08 12:29:18;;;;;;;1.38;0.70;;;;;;;;;;5061070;28;20742;-74
2022/08/08 12:31:45;;;;;;;1.75;0.45;;;;;;;;;;5072843;28;20080;-78
2022/08/08 12:34:11;;;;;;;1.55;0.68;;;;;;;;;;5074950;28;20033;-77
2022/08/08 12:36:41;;;;;;;3.83;0.80;;;;;;;;;;5075031;28;20029;-76
2022/08/08 12:39:07;;;;;;;3.42;0.73;;;;;;;;;;5073426;28;20029;-77
2022/08/08 12:41:37;;;;;;;4.97;0.82;;;;;;;;;;5072132;28;20024;-77
2022/08/08 12:44:07;;;;;;;2.25;0.63;;;;;;;;;;5074252;28;20039;-77
2022/08/08 12:46:33;;;;;;;2.78;0.90;;;;;;;;;;5052154;28;20116;-76
2022/08/08 12:49:01;;;;;;;1.73;0.60;;;;;;;;;;5063530;28;20021;-75
2022/08/08 12:51:38;;;;;;;3.53;0.80;;;;;;;;;;5061939;28;20056;-76
2022/08/08 12:54:06;;;;;;;4.35;0.85;;;;;;;;;;5059740;28;20036;-78
2022/08/08 12:56:40;;;;;;;3.72;0.80;;;;;;;;;;5059366;28;20029;-77
2022/08/08 12:59:14;;;;;;;2.15;0.57;;;;;;;;;;5057345;28;20029;-77
2022/08/08 13:01:41;;;;;;;2.90;0.65;;;;;;;;;;5059084;28;20041;-78
2022/08/08 13:04:15;;;;;;;3.40;0.70;;;;;;;;;;5062885;28;20099;-76
2022/08/08 13:06:51;;;;;;;3.33;0.98;;;;;;;;;;5056936;28;20446;-77
2022/08/08 13:09:28;;;;;;;5.13;0.98;;;;;;;;;;5060834;28;20025;-78
2022/08/08 13:11:55;;;;;;;5.05;1.23;;;;;;;;;;5056616;28;20108;-76
2022/08/08 13:14:21;;;;;;;2.40;0.77;;;;;;;;;;5056213;28;20021;-77
2022/08/08 13:16:48;;;;;;;4.15;1.05;;;;;;;;;;5056157;28;20025;-77
2022/08/08 13:19:14;;;;;;;3.45;0.70;;;;;;;;;;5053784;28;20244;-79
2022/08/08 13:21:45;;;;;;;2.47;1.00;;;;;;;;;;5055173;28;20049;-77
2022/08/08 13:24:11;;;;;;;4.35;1.33;;;;;;;;;;5056722;28;20048;-78
2022/08/08 13:26:38;;;;;;;2.83;0.70;;;;;;;;;;5054425;28;20016;-77
2022/08/08 13:29:11;;;;;;;1.92;0.80;;;;;;;;;;5054196;28;20028;-77
2022/08/08 13:31:47;;;;;;;2.67;0.65;;;;;;;;;;5075831;28;20158;-78
2022/08/08 13:34:20;;;;;;;1.48;0.60;;;;;;;;;;5063821;28;20034;-78
2022/08/08 13:36:46;;;;;;;1.65;0.70;;;;;;;;;;5073528;28;20024;-77
2022/08/08 13:39:15;;;;;;;3.88;1.02;;;;;;;;;;5081207;28;20028;-77
2022/08/08 13:41:42;;;;;;;4.15;1.00;;;;;;;;;;5079999;28;20471;-74
2022/08/08 13:44:09;;;;;;;3.60;0.88;;;;;;;;;;5079176;28;20025;-79
2022/08/08 13:46:35;;;;;;;2.63;0.73;;;;;;;;;;5080130;28;20536;-77
2022/08/08 13:49:02;;;;;;;4.00;0.82;;;;;;;;;;5078808;28;20020;-77
2022/08/08 13:51:29;;;;;;;2.67;0.63;;;;;;;;;;5055986;28;20327;-76
2022/08/08 13:53:56;;;;;;;3.30;0.73;;;;;;;;;;5075141;28;20072;-76
2022/08/08 13:56:35;;;;;;;2.55;0.80;;;;;;;;;;5080577;28;20435;-74
2022/08/08 13:59:01;;;;;;;3.17;0.90;;;;;;;;;;5084926;28;20020;-77
2022/08/08 14:01:29;;;;;;;3.95;0.82;;;;;;;;;;5084117;28;20055;-77
2022/08/08 14:03:56;;;;;;;2.92;0.70;;;;;;;;;;5065888;28;20067;-77
2022/08/08 14:06:23;;;;;;;6.95;1.05;;;;;;;;;;5081276;28;20033;-77
2022/08/08 14:08:50;;;;;;;2.58;0.60;;;;;;;;;;5082222;28;20348;-74
2022/08/08 14:11:33;;;;;;;6.13;1.05;;;;;;;;;;5083807;28;20020;-76
2022/08/08 14:14:00;;;;;;;3.33;0.80;;;;;;;;;;5086711;28;20024;-77
2022/08/08 14:16:28;;;;;;;3.97;0.65;;;;;;;;;;5085484;28;20029;-77
2022/08/08 14:18:56;;;;;;;3.95;0.93;;;;;;;;;;5085686;28;20107;-78
2022/08/08 14:21:42;;;;;;;7.38;1.30;;;;;;;;;;5084555;28;20051;-76
2022/08/08 14:24:08;;;;;;;4.15;1.30;;;;;;;;;;5083659;28;20138;-75
2022/08/08 14:26:41;;;;;;;3.15;0.80;;;;;;;;;;5081744;28;20051;-80
2022/08/08 14:29:07;;;;;;;5.30;1.05;;;;;;;;;;5065831;28;20500;-75
2022/08/08 14:31:33;;;;;;;5.10;0.90;;;;;;;;;;5082670;28;20021;-76
2022/08/08 14:34:01;;;;;;;3.17;0.70;;;;;;;;;;5082763;28;20066;-75
2022/08/08 14:36:31;;;;;;;4.90;1.30;;;;;;;;;;5084300;28;20465;-75
2022/08/08 14:38:59;;;;;;;2.00;0.85;;;;;;;;;;5071581;28;20028;-76
2022/08/08 14:41:26;;;;;;;5.82;1.20;;;;;;;;;;5064235;28;20079;-78
2022/08/08 14:43:53;;;;;;;3.95;1.15;;;;;;;;;;5072049;28;20028;-79
2022/08/08 14:46:24;;;;;;;5.78;0.85;;;;;;;;;;5085173;28;20021;-79
2022/08/08 14:49:01;;;;;;;3.65;0.98;;;;;;;;;;5087091;28;20031;-78
2022/08/08 14:51:27;;;;;;;4.72;1.13;;;;;;;;;;5087481;28;20044;-78
2022/08/08 14:53:55;;;;;;;6.43;0.88;;;;;;;;;;5086933;28;20028;-79
2022/08/08 14:56:22;;;;;;;4.68;1.10;;;;;;;;;;5084683;28;20039;-76
2022/08/08 14:58:48;;;;;;;3.03;0.77;;;;;;;;;;5079345;28;20070;-76
2022/08/08 15:01:14;;;;;;;3.88;0.70;;;;;;;;;;5072682;28;20063;-75
2022/08/08 15:03:40;;;;;;;3.38;0.77;;;;;;;;;;5084426;28;20024;-77
2022/08/08 15:06:06;;;;;;;3.78;0.70;;;;;;;;;;5084043;28;20078;-76
2022/08/08 15:08:36;;;;;;;2.15;0.73;;;;;;;;;;5073824;28;20033;-77